createdAt,value
2023-01-07T00:00:40.196Z,98206.72
2023-01-07T00:03:11.661Z,98203.31
2023-01-07T00:05:44.663Z,98204.53
2023-01-07T00:08:15.353Z,98200.88
2023-01-07T00:10:45.713Z,98203.66
2023-01-07T00:13:16.056Z,98202.72
2023-01-07T00:15:46.390Z,98198.56
2023-01-07T00:18:16.871Z,98194.56
2023-01-07T00:20:49.800Z,98193.06
2023-01-07T00:23:20.177Z,98189.78
2023-01-07T00:25:50.511Z,98184.09
2023-01-07T00:28:21.006Z,98192.72
2023-01-07T00:30:51.320Z,98186.72
2023-01-07T00:33:22.693Z,98196.28
2023-01-07T00:36:02.769Z,98192.91
2023-01-07T00:38:34.069Z,98187.97
2023-01-07T00:41:05.105Z,98192.41
2023-01-07T00:43:35.654Z,98181.06
2023-01-07T00:46:06.355Z,98185.31
2023-01-07T00:48:36.789Z,98179.47
2023-01-07T00:51:11.344Z,98184.38
2023-01-07T00:53:42.042Z,98181.47
2023-01-07T00:56:14.554Z,98177.31
2023-01-07T00:58:45.556Z,98184.09
2023-01-07T01:01:16.290Z,98194.84
2023-01-07T01:03:46.624Z,98172.59
2023-01-07T01:06:19.843Z,98186.09
2023-01-07T01:08:50.786Z,98187.03
2023-01-07T01:11:21.554Z,98188.41
2023-01-07T01:13:51.925Z,98188.09
2023-01-07T01:16:22.363Z,98195.19
2023-01-07T01:18:52.771Z,98192.56
2023-01-07T01:21:25.802Z,98184.56
2023-01-07T01:23:56.087Z,98193.19
2023-01-07T01:26:26.503Z,98189.97
2023-01-07T01:28:57.587Z,98189.75
2023-01-07T01:31:28.545Z,98190.53
2023-01-07T01:33:59.945Z,98181.63
2023-01-07T01:36:33.007Z,98181.63
2023-01-07T01:39:05.020Z,98183.88
2023-01-07T01:41:37.670Z,98191.72
2023-01-07T01:44:38.163Z,98180.91
2023-01-07T01:47:20.880Z,98185.69
2023-01-07T01:49:59.316Z,98189.16
2023-01-07T01:52:39.312Z,98171.47
2023-01-07T01:55:13.405Z,98172.38
2023-01-07T01:57:44.644Z,98180.03
2023-01-07T02:00:16.937Z,98174.03
2023-01-07T02:02:57.122Z,98166.78
2023-01-07T02:05:30.663Z,98168.22
2023-01-07T02:08:03.656Z,98159.16
2023-01-07T02:10:35.645Z,98163.00
2023-01-07T02:13:29.485Z,98159.28
2023-01-07T02:16:08.407Z,98166.25
2023-01-07T02:19:16.490Z,98172.22
2023-01-07T02:21:58.921Z,98171.44
2023-01-07T02:25:16.348Z,98177.84
2023-01-07T02:28:24.936Z,98166.78
2023-01-07T02:31:24.304Z,98163.22
2023-01-07T02:34:01.216Z,98161.09
2023-01-07T02:36:48.186Z,98153.88
2023-01-07T02:39:39.442Z,98150.44
2023-01-07T02:42:25.323Z,98144.56
2023-01-07T02:45:05.990Z,98144.56
2023-01-07T02:47:41.208Z,98140.59
2023-01-07T02:50:14.314Z,98135.06
2023-01-07T02:52:44.910Z,98138.53
2023-01-07T02:55:18.982Z,98144.38
2023-01-07T02:58:12.776Z,98144.97
2023-01-07T03:01:04.387Z,98142.72
2023-01-07T03:03:44.055Z,98145.34
2023-01-07T03:06:37.755Z,98145.53
2023-01-07T03:09:15.332Z,98138.16
2023-01-07T03:11:52.029Z,98138.94
2023-01-07T03:14:28.067Z,98133.41
2023-01-07T03:17:06.085Z,98141.97
2023-01-07T03:19:39.604Z,98133.44
2023-01-07T03:22:13.564Z,98139.56
2023-01-07T03:24:44.395Z,98136.97
2023-01-07T03:27:15.246Z,98128.53
2023-01-07T03:29:46.165Z,98138.63
2023-01-07T03:32:20.008Z,98138.63
2023-01-07T03:34:51.130Z,98144.94
2023-01-07T03:37:25.594Z,98138.19
2023-01-07T03:39:57.108Z,98127.47
2023-01-07T03:42:41.343Z,98136.03
2023-01-07T03:45:37.742Z,98132.94
2023-01-07T03:48:09.058Z,98132.47
2023-01-07T03:50:41.731Z,98135.28
2023-01-07T03:53:14.761Z,98141.56
2023-01-07T03:55:51.303Z,98140.69
2023-01-07T03:58:22.263Z,98143.81
2023-01-07T04:00:57.534Z,98128.47
2023-01-07T04:03:28.019Z,98128.78
2023-01-07T04:05:58.482Z,98118.66
2023-01-07T04:08:31.537Z,98122.47
2023-01-07T04:11:01.828Z,98119.25
2023-01-07T04:13:32.587Z,98121.44
2023-01-07T04:16:03.240Z,98115.59
2023-01-07T04:18:33.765Z,98115.63
2023-01-07T04:21:04.131Z,98115.28
2023-01-07T04:23:37.462Z,98109.47
2023-01-07T04:26:08.532Z,98110.69
2023-01-07T04:28:42.578Z,98116.22
2023-01-07T04:31:13.241Z,98115.94
2023-01-07T04:33:44.197Z,98108.78
2023-01-07T04:36:14.930Z,98104.03
2023-01-07T04:38:48.209Z,98107.56
2023-01-07T04:41:18.534Z,98100.28
2023-01-07T04:43:49.153Z,98097.50
2023-01-07T04:46:19.563Z,98101.63
2023-01-07T04:48:49.993Z,98100.09
2023-01-07T04:51:20.970Z,98110.66
2023-01-07T04:53:53.972Z,98101.13
2023-01-07T04:56:24.248Z,98098.06
2023-01-07T04:58:54.892Z,98097.31
2023-01-07T05:01:25.828Z,98100.25
2023-01-07T05:03:56.291Z,98101.75
2023-01-07T05:06:28.169Z,98092.56
2023-01-07T05:09:01.834Z,98095.75
2023-01-07T05:11:33.285Z,98089.31
2023-01-07T05:14:05.224Z,98091.78
2023-01-07T05:16:37.014Z,98089.34
2023-01-07T05:19:12.788Z,98081.19
2023-01-07T05:21:47.084Z,98091.50
2023-01-07T05:24:22.200Z,98086.16
2023-01-07T05:26:52.457Z,98092.91
2023-01-07T05:29:23.292Z,98076.75
2023-01-07T05:31:53.824Z,98075.38
2023-01-07T05:34:24.405Z,98076.31
2023-01-07T05:36:57.400Z,98071.38
2023-01-07T05:39:30.833Z,98070.16
2023-01-07T05:42:01.595Z,98076.03
2023-01-07T05:44:32.656Z,98076.91
2023-01-07T05:47:03.035Z,98073.69
2023-01-07T05:49:33.398Z,98073.53
2023-01-07T05:52:03.768Z,98072.66
2023-01-07T05:54:36.831Z,98069.56
2023-01-07T05:57:07.293Z,98068.84
2023-01-07T05:59:37.606Z,98068.63
2023-01-07T06:02:08.575Z,98064.63
2023-01-07T06:04:38.931Z,98061.88
2023-01-07T06:07:09.383Z,98072.31
2023-01-07T06:09:42.510Z,98074.06
2023-01-07T06:12:12.839Z,98072.06
2023-01-07T06:14:43.205Z,98073.13
2023-01-07T06:17:13.536Z,98072.84
2023-01-07T06:19:43.786Z,98072.78
2023-01-07T06:22:14.075Z,98060.94
2023-01-07T06:24:47.011Z,98068.16
2023-01-07T06:27:17.352Z,98071.53
2023-01-07T06:29:47.674Z,98065.84
2023-01-07T06:32:17.951Z,98069.84
2023-01-07T06:34:48.190Z,98076.44
2023-01-07T06:37:18.496Z,98061.88
2023-01-07T06:39:51.438Z,98060.50
2023-01-07T06:42:21.729Z,98060.56
2023-01-07T06:44:52.074Z,98058.84
2023-01-07T06:47:22.405Z,98055.47
2023-01-07T06:49:53.022Z,98064.31
2023-01-07T06:52:23.599Z,98066.59
2023-01-07T06:54:56.570Z,98059.38
2023-01-07T06:57:26.990Z,98054.31
2023-01-07T06:59:57.384Z,98060.00
2023-01-07T07:02:30.933Z,98058.63
2023-01-07T07:05:01.417Z,98056.16
2023-01-07T07:07:31.822Z,98063.09
2023-01-07T07:10:07.744Z,98063.72
2023-01-07T07:12:38.264Z,98059.84
2023-01-07T07:15:11.219Z,98060.91
2023-01-07T07:17:41.530Z,98072.41
2023-01-07T07:20:13.868Z,98065.81
2023-01-07T07:22:48.706Z,98062.16
2023-01-07T07:25:21.955Z,98064.75
2023-01-07T07:27:52.280Z,98065.84
2023-01-07T07:30:22.674Z,98064.91
2023-01-07T07:33:15.121Z,98067.84
2023-01-07T07:35:45.565Z,98069.72
2023-01-07T07:38:17.847Z,98072.16
2023-01-07T07:40:51.442Z,98075.69
2023-01-07T07:43:21.841Z,98071.38
2023-01-07T07:45:52.219Z,98074.00
2023-01-07T07:48:22.560Z,98069.72
2023-01-07T07:50:54.477Z,98072.59
2023-01-07T07:53:24.809Z,98071.72
2023-01-07T07:55:57.838Z,98082.59
2023-01-07T07:58:28.359Z,98062.16
2023-01-07T08:00:58.752Z,98073.06
2023-01-07T08:03:29.181Z,98076.47
2023-01-07T08:05:59.753Z,98067.75
2023-01-07T08:08:30.262Z,98068.22
2023-01-07T08:11:03.409Z,98071.00
2023-01-07T08:13:34.298Z,98072.53
2023-01-07T08:16:04.763Z,98070.84
2023-01-07T08:18:35.207Z,98075.44
2023-01-07T08:21:05.568Z,98074.69
2023-01-07T08:23:36.084Z,98075.47
2023-01-07T08:26:09.349Z,98065.75
2023-01-07T08:28:40.818Z,98065.75
2023-01-07T08:31:11.502Z,98059.94
2023-01-07T08:33:42.694Z,98074.69
2023-01-07T08:36:28.885Z,98055.00
2023-01-07T08:38:59.317Z,98059.63
2023-01-07T08:41:32.345Z,98057.16
2023-01-07T08:44:02.579Z,98057.16
2023-01-07T08:46:32.857Z,98056.34
2023-01-07T08:49:03.654Z,98047.75
2023-01-07T08:51:34.114Z,98046.78
2023-01-07T08:54:04.549Z,98056.25
2023-01-07T08:56:37.458Z,98045.03
2023-01-07T08:59:07.772Z,98040.88
2023-01-07T09:01:38.218Z,98040.13
2023-01-07T09:04:08.856Z,98041.03
2023-01-07T09:06:39.559Z,98045.63
2023-01-07T09:09:10.497Z,98051.31
2023-01-07T09:11:43.496Z,98043.19
2023-01-07T09:14:13.970Z,98047.19
2023-01-07T09:16:44.370Z,98038.59
2023-01-07T09:19:14.769Z,98041.19
2023-01-07T09:21:45.054Z,98035.66
2023-01-07T09:24:15.351Z,98049.03
2023-01-07T09:26:48.426Z,98040.88
2023-01-07T09:29:18.713Z,98044.84
2023-01-07T09:31:48.957Z,98037.13
2023-01-07T09:34:19.307Z,98036.28
2023-01-07T09:36:49.563Z,98031.00
2023-01-07T09:39:19.938Z,98024.50
2023-01-07T09:42:01.801Z,98019.78
2023-01-07T09:44:52.059Z,98027.31
2023-01-07T09:47:25.941Z,98028.50
2023-01-07T09:50:00.693Z,98020.41
2023-01-07T09:52:37.042Z,98017.94
2023-01-07T09:55:17.834Z,98007.31
2023-01-07T09:57:51.396Z,98012.38
2023-01-07T10:00:25.506Z,98013.00
2023-01-07T10:03:20.941Z,98003.84
2023-01-07T10:06:07.583Z,98002.84
2023-01-07T10:08:52.592Z,98001.59
2023-01-07T10:11:35.783Z,97993.69
2023-01-07T10:14:57.692Z,97990.91
2023-01-07T10:17:44.399Z,97988.66
2023-01-07T10:20:22.628Z,97987.06
2023-01-07T10:22:58.150Z,97978.59
2023-01-07T10:25:34.412Z,97975.25
2023-01-07T10:28:10.493Z,97968.66
2023-01-07T10:30:51.871Z,97961.75
2023-01-07T10:33:29.189Z,97965.22
2023-01-07T10:36:15.239Z,97963.97
2023-01-07T10:38:50.799Z,97958.88
2023-01-07T10:41:28.437Z,97955.06
2023-01-07T10:44:25.370Z,97954.63
2023-01-07T10:47:11.768Z,97948.06
2023-01-07T10:50:01.281Z,97952.66
2023-01-07T10:52:43.076Z,97948.78
2023-01-07T10:55:38.193Z,97937.63
2023-01-07T10:58:13.025Z,97939.13
2023-01-07T11:00:44.331Z,97933.31
2023-01-07T11:03:25.083Z,97939.38
2023-01-07T11:06:02.938Z,97928.56
2023-01-07T11:08:41.331Z,97923.72
2023-01-07T11:11:18.393Z,97928.75
2023-01-07T11:14:00.643Z,97908.44
2023-01-07T11:16:36.756Z,97917.66
2023-01-07T11:19:13.062Z,97910.34
2023-01-07T11:21:45.435Z,97904.88
2023-01-07T11:24:36.323Z,97896.59
2023-01-07T11:27:14.853Z,97885.47
2023-01-07T11:29:48.275Z,97886.16
2023-01-07T11:32:26.273Z,97878.94
2023-01-07T11:35:05.047Z,97871.13
2023-01-07T11:37:42.127Z,97865.63
2023-01-07T11:40:32.308Z,97870.72
2023-01-07T11:43:06.090Z,97871.63
2023-01-07T11:45:39.780Z,97868.97
2023-01-07T11:48:15.891Z,97856.09
2023-01-07T11:51:00.406Z,97858.09
2023-01-07T11:53:39.839Z,97851.56
2023-01-07T11:56:14.394Z,97843.41
2023-01-07T11:58:48.739Z,97846.44
2023-01-07T12:01:21.542Z,97842.88
2023-01-07T12:04:23.462Z,97839.34
2023-01-07T12:06:59.152Z,97830.91
2023-01-07T12:09:37.724Z,97826.50
2023-01-07T12:12:27.256Z,97832.53
2023-01-07T12:15:02.028Z,97833.13
2023-01-07T12:17:37.027Z,97820.63
2023-01-07T12:20:41.140Z,97815.16
2023-01-07T12:23:28.145Z,97817.09
2023-01-07T12:26:11.127Z,97811.81
2023-01-07T12:29:00.376Z,97816.19
2023-01-07T12:31:46.639Z,97805.13
2023-01-07T12:34:33.142Z,97808.84
2023-01-07T12:37:10.810Z,97792.31
2023-01-07T12:39:47.913Z,97794.78
2023-01-07T12:42:23.816Z,97789.72
2023-01-07T12:44:58.850Z,97787.97
2023-01-07T12:47:37.665Z,97780.53
2023-01-07T12:50:15.104Z,97785.00
2023-01-07T12:52:49.327Z,97770.09
2023-01-07T12:55:25.689Z,97769.16
2023-01-07T12:58:09.072Z,97766.84
2023-01-07T13:00:47.502Z,97763.41
2023-01-07T13:03:35.727Z,97754.81
2023-01-07T13:06:16.964Z,97751.84
2023-01-07T13:08:56.427Z,97752.25
2023-01-07T13:11:50.161Z,97749.38
2023-01-07T13:14:27.977Z,97744.97
2023-01-07T13:17:07.151Z,97738.47
2023-01-07T13:19:37.515Z,97734.25
2023-01-07T13:22:08.200Z,97730.06
2023-01-07T13:24:54.599Z,97735.41
2023-01-07T13:27:39.808Z,97729.56
2023-01-07T13:30:24.189Z,97727.19
2023-01-07T13:33:08.651Z,97729.56
2023-01-07T13:36:00.296Z,97723.34
2023-01-07T13:38:56.325Z,97715.50
2023-01-07T13:41:52.646Z,97705.56
2023-01-07T13:45:08.217Z,97699.91
2023-01-07T13:47:54.379Z,97705.69
2023-01-07T13:50:30.550Z,97701.16
2023-01-07T13:53:04.871Z,97698.47
2023-01-07T13:55:42.286Z,97697.22
2023-01-07T13:58:47.565Z,97691.41
2023-01-07T14:01:22.197Z,97693.31
2023-01-07T14:03:53.733Z,97687.13
2023-01-07T14:06:46.980Z,97680.19
2023-01-07T14:09:40.438Z,97676.41
2023-01-07T14:12:39.629Z,97678.63
2023-01-07T14:15:34.483Z,97675.56
2023-01-07T14:18:41.789Z,97665.75
2023-01-07T14:21:39.920Z,97674.78
2023-01-07T14:25:11.202Z,97665.13
2023-01-07T14:28:11.668Z,97659.69
2023-01-07T14:30:48.682Z,97651.66
2023-01-07T14:33:26.846Z,97657.91
2023-01-07T14:36:01.263Z,97670.22
2023-01-07T14:39:04.170Z,97670.22
2023-01-07T14:41:34.582Z,97660.84
2023-01-07T14:44:30.974Z,97661.59
2023-01-07T14:47:01.468Z,97661.59
2023-01-07T14:50:12.834Z,97660.06
2023-01-07T14:53:26.571Z,97650.72
2023-01-07T14:56:29.574Z,97661.28
2023-01-07T14:59:34.321Z,97653.47
2023-01-07T15:03:00.842Z,97650.97
2023-01-07T15:05:58.731Z,97647.53
2023-01-07T15:08:54.628Z,97643.53
2023-01-07T15:11:41.632Z,97649.06
2023-01-07T15:14:36.710Z,97640.19
2023-01-07T15:17:07.622Z,97637.63
2023-01-07T15:19:41.410Z,97633.22
2023-01-07T15:22:34.986Z,97639.22
2023-01-07T15:25:22.699Z,97636.19
2023-01-07T15:28:02.264Z,97644.78
2023-01-07T15:30:47.357Z,97637.72
2023-01-07T15:34:02.858Z,97626.66
2023-01-07T15:36:34.216Z,97632.47
2023-01-07T15:39:07.575Z,97634.75
2023-01-07T15:41:41.212Z,97628.84
2023-01-07T15:44:21.584Z,97634.66
2023-01-07T15:46:52.344Z,97624.63
2023-01-07T15:49:26.713Z,97633.16
2023-01-07T15:52:00.588Z,97627.22
2023-01-07T15:54:37.287Z,97617.66
2023-01-07T15:57:14.841Z,97616.88
2023-01-07T15:59:50.133Z,97617.25
2023-01-07T16:02:28.009Z,97617.66
2023-01-07T16:05:01.670Z,97610.66
2023-01-07T16:07:35.822Z,97616.47
2023-01-07T16:10:10.224Z,97614.34
2023-01-07T16:12:42.073Z,97614.53
2023-01-07T16:15:31.061Z,97610.88
2023-01-07T16:18:04.428Z,97611.84
2023-01-07T16:20:38.307Z,97604.41
2023-01-07T16:23:23.300Z,97604.47
2023-01-07T16:26:02.226Z,97600.47
2023-01-07T16:28:37.982Z,97598.38
2023-01-07T16:31:16.009Z,97594.38
2023-01-07T16:33:47.316Z,97581.28
2023-01-07T16:36:21.686Z,97590.44
2023-01-07T16:38:56.937Z,97592.19
2023-01-07T16:41:32.127Z,97592.44
2023-01-07T16:44:03.671Z,97591.75
2023-01-07T16:46:36.175Z,97589.63
2023-01-07T16:49:24.277Z,97587.38
2023-01-07T16:51:57.835Z,97599.41
2023-01-07T16:54:37.405Z,97594.50
2023-01-07T16:57:39.802Z,97599.91
2023-01-07T17:00:21.501Z,97594.41
2023-01-07T17:02:57.098Z,97592.88
2023-01-07T17:05:29.768Z,97591.81
2023-01-07T17:08:03.258Z,97592.63
2023-01-07T17:10:35.985Z,97592.34
2023-01-07T17:13:23.139Z,97585.28
2023-01-07T17:15:54.287Z,97575.91
2023-01-07T17:18:31.989Z,97582.22
2023-01-07T17:21:03.731Z,97577.75
2023-01-07T17:23:45.839Z,97573.28
2023-01-07T17:26:24.284Z,97579.44
2023-01-07T17:29:00.120Z,97582.09
2023-01-07T17:31:31.357Z,97587.19
2023-01-07T17:34:01.723Z,97592.00
2023-01-07T17:36:33.450Z,97593.66
2023-01-07T17:39:03.744Z,97584.72
2023-01-07T17:41:50.480Z,97587.19
2023-01-07T17:44:26.256Z,97587.06
2023-01-07T17:46:56.536Z,97585.38
2023-01-07T17:49:26.976Z,97576.94
2023-01-07T17:51:57.470Z,97583.38
2023-01-07T17:54:28.825Z,97576.13
2023-01-07T17:56:59.096Z,97568.91
2023-01-07T17:59:33.119Z,97576.09
2023-01-07T18:02:04.165Z,97568.47
2023-01-07T18:04:34.614Z,97578.44
2023-01-07T18:07:04.880Z,97564.16
2023-01-07T18:09:35.119Z,97554.66
2023-01-07T18:12:17.735Z,97561.97
2023-01-07T18:14:50.699Z,97554.34
2023-01-07T18:17:24.860Z,97552.81
2023-01-07T18:19:55.261Z,97551.56
2023-01-07T18:22:26.823Z,97543.88
2023-01-07T18:24:57.389Z,97540.00
2023-01-07T18:27:27.788Z,97536.59
2023-01-07T18:30:01.421Z,97528.78
2023-01-07T18:32:31.890Z,97531.59
2023-01-07T18:35:02.286Z,97523.06
2023-01-07T18:37:32.651Z,97531.03
2023-01-07T18:40:03.712Z,97521.25
2023-01-07T18:42:35.939Z,97509.25
2023-01-07T18:45:10.851Z,97517.59
2023-01-07T18:47:43.062Z,97513.75
2023-01-07T18:50:17.427Z,97524.03
2023-01-07T18:52:48.072Z,97513.31
2023-01-07T18:55:19.506Z,97516.47
2023-01-07T18:57:49.849Z,97509.44
2023-01-07T19:00:23.473Z,97508.81
2023-01-07T19:02:53.850Z,97523.13
2023-01-07T19:05:24.228Z,97515.56
2023-01-07T19:07:55.577Z,97510.19
2023-01-07T19:10:26.560Z,97504.06
2023-01-07T19:12:56.991Z,97501.03
2023-01-07T19:15:30.055Z,97504.88
2023-01-07T19:18:00.371Z,97513.31
2023-01-07T19:20:30.700Z,97512.28
2023-01-07T19:23:01.368Z,97503.81
2023-01-07T19:25:32.155Z,97501.13
2023-01-07T19:28:02.485Z,97498.34
2023-01-07T19:30:35.646Z,97487.94
2023-01-07T19:33:06.136Z,97484.88
2023-01-07T19:35:38.253Z,97487.47
2023-01-07T19:38:08.540Z,97484.00
2023-01-07T19:40:38.825Z,97474.59
2023-01-07T19:43:09.104Z,97482.28
2023-01-07T19:45:42.188Z,97478.94
2023-01-07T19:48:12.651Z,97464.81
2023-01-07T19:50:43.183Z,97461.91
2023-01-07T19:53:13.970Z,97455.16
2023-01-07T19:55:44.340Z,97451.78
2023-01-07T19:58:14.659Z,97447.78
2023-01-07T20:00:47.744Z,97447.50
2023-01-07T20:03:18.090Z,97435.06
2023-01-07T20:05:48.467Z,97437.97
2023-01-07T20:08:18.739Z,97425.44
2023-01-07T20:10:59.243Z,97428.53
2023-01-07T20:13:33.768Z,97419.50
2023-01-07T20:16:12.263Z,97422.44
2023-01-07T20:18:44.801Z,97423.34
2023-01-07T20:21:17.475Z,97415.97
2023-01-07T20:23:48.012Z,97411.97
2023-01-07T20:26:22.201Z,97408.91
2023-01-07T20:28:54.404Z,97406.59
2023-01-07T20:31:29.404Z,97408.44
2023-01-07T20:33:59.824Z,97409.09
2023-01-07T20:36:32.877Z,97408.00
2023-01-07T20:39:06.047Z,97403.13
2023-01-07T20:41:38.921Z,97405.59
2023-01-07T20:44:11.117Z,97402.56
2023-01-07T20:46:44.111Z,97394.28
2023-01-07T20:49:15.880Z,97390.78
2023-01-07T20:51:46.165Z,97384.78
2023-01-07T20:54:16.470Z,97387.25
2023-01-07T20:56:46.785Z,97388.66
2023-01-07T20:59:17.362Z,97384.22
2023-01-07T21:01:50.524Z,97379.66
2023-01-07T21:04:21.248Z,97390.97
2023-01-07T21:06:51.625Z,97382.41
2023-01-07T21:09:22.289Z,97384.22
2023-01-07T21:11:52.715Z,97385.00
2023-01-07T21:14:23.174Z,97374.72
2023-01-07T21:16:56.225Z,97384.53
2023-01-07T21:19:26.637Z,97377.34
2023-01-07T21:21:57.074Z,97379.34
2023-01-07T21:24:27.431Z,97374.16
2023-01-07T21:26:57.692Z,97371.66
2023-01-07T21:29:28.014Z,97363.38
2023-01-07T21:32:01.056Z,97363.25
2023-01-07T21:34:31.443Z,97356.50
2023-01-07T21:37:01.811Z,97339.81
2023-01-07T21:39:32.352Z,97351.50
2023-01-07T21:42:02.687Z,97365.88
2023-01-07T21:44:33.760Z,97360.50
2023-01-07T21:47:07.177Z,97361.41
2023-01-07T21:49:37.459Z,97355.44
2023-01-07T21:52:08.108Z,97353.63
2023-01-07T21:54:38.705Z,97354.88
2023-01-07T21:57:09.160Z,97351.34
2023-01-07T21:59:39.475Z,97352.09
2023-01-07T22:02:13.996Z,97349.91
2023-01-07T22:04:46.163Z,97339.94
2023-01-07T22:07:18.737Z,97342.09
2023-01-07T22:09:49.799Z,97326.50
2023-01-07T22:12:19.855Z,97332.78
2023-01-07T22:14:50.198Z,97335.22
2023-01-07T22:17:24.135Z,97334.66
2023-01-07T22:19:54.460Z,97332.81
2023-01-07T22:22:24.706Z,97336.94
2023-01-07T22:24:55.031Z,97326.94
2023-01-07T22:27:25.355Z,97329.72
2023-01-07T22:29:56.347Z,97339.50
2023-01-07T22:32:29.307Z,97344.38
2023-01-07T22:34:59.601Z,97349.44
2023-01-07T22:37:29.936Z,97344.38
2023-01-07T22:40:04.438Z,97335.22
2023-01-07T22:42:41.774Z,97340.28
2023-01-07T22:45:17.446Z,97342.41
2023-01-07T22:47:53.239Z,97348.03
2023-01-07T22:50:23.986Z,97353.25
2023-01-07T22:52:55.109Z,97337.47
2023-01-07T22:55:25.569Z,97341.13
2023-01-07T22:57:56.196Z,97344.38
2023-01-07T23:00:43.282Z,97330.97
2023-01-07T23:03:16.334Z,97341.53
2023-01-07T23:05:46.670Z,97327.41
2023-01-07T23:08:17.635Z,97319.78
2023-01-07T23:10:48.476Z,97318.25
2023-01-07T23:13:18.859Z,97309.97
2023-01-07T23:15:49.292Z,97306.13
2023-01-07T23:18:22.320Z,97306.88
2023-01-07T23:20:52.605Z,97302.03
2023-01-07T23:23:25.697Z,97299.09
2023-01-07T23:25:56.393Z,97307.66
2023-01-07T23:28:26.777Z,97307.97
2023-01-07T23:30:57.108Z,97311.19
2023-01-07T23:33:30.034Z,97314.53
2023-01-07T23:36:05.732Z,97310.53
2023-01-07T23:38:36.640Z,97311.00
2023-01-07T23:41:09.697Z,97305.31
2023-01-07T23:43:40.526Z,97300.25
2023-01-07T23:46:11.648Z,97296.94
2023-01-07T23:48:44.331Z,97301.94
2023-01-07T23:51:17.089Z,97304.44
2023-01-07T23:53:48.853Z,97299.84
2023-01-07T23:56:22.198Z,97294.97
2023-01-07T23:58:53.542Z,97285.00
